Radom, Poland

9:35 PM CEST on April 18, 2015 (GMT +0200)
Dabrowka Nagorna | | Change Station
CLOSE
Current Station
Personal Weather Station
Location: Dąbrówka Nagórna-Wieś, MAZOWIECKIE
Elevation: 584 ft
Nearby Weather Stations

Elev 584 ft 51.45 °N, 21.09 °E | Updated 29 seconds ago

Clear
Clear
39.4 °F
Feels Like 37 °F
N
3.8
Wind Variable Wind from SW
Gusts 6.0 mph

Today
High -- | Low -- °F
--% Chance of Precip.
Yesterday
High -- | Low -- °F
Precip. -- in
5:34 AM 7:36 PM
New Moon, 0% visible
Pressure 30.06 in
Visibility -9999.0 miles
Clouds
Windchill 37 °F
Dew Point 34 °F
Humidity 82%
Rainfall 0.04 in
Snow Depth Not available.
UV Not available.
Pollen Not available.
Air Quality Not available.
Flu Activity Not available.
METAR EPWA 181930Z 31005KT CAVOK 05/01 Q1018 NOSIG

More Conditions Fewer Conditions

Pressure 30.06 in
Visibility -9999.0 miles
Clouds
Windchill 37 °F
Dew Point 34 °F
Humidity 82%
Rainfall 0.04 in
Snow Depth Not available.
UV Not available.
Pollen Not available.
Air Quality Not available.
Flu Activity Not available.
METAR EPWA 181930Z 31005KT CAVOK 05/01 Q1018 NOSIG

More Conditions Fewer Conditions

10-Day Weather Forecast

Almanac

Astronomy

Apr. 18, 2015 Rise Set
Actual Time
Civil Twilight
Nautical Twilight
Astronomical Twilight
Moon
Length of Visible Light
Length of Day
Tomorrow will be .
, % of the Moon is Illuminated

Today's Extremes

Country Highs Country Lows

Community

WunderPhotos

Upload Photos

1,814,502 photos uploaded!

WunderBlogs® & News

Nearby

Air Quality

  Air Quality AQ Index Pollutant
Not available.

Snow Depth

Station Depth Elevation

Earthquake Activity

City Distance Mag. Time & Date
Minimum magnitude displayed is 2.5.

Coastal Water Temperatures

Place Temperature

Stations

Nearby Weather Stations

Station Location Temp. Windchill Dew Point Humidity Wind Precip. Elev Updated Type